sensor_id;sensor_type;location;lat;lon;timestamp;P1;durP1;ratioP1;P2;durP2;ratioP2
61960;SDS011;47923;42.506;24.192;2022-08-19T00:01:50;7.20;;;5.03;;
61960;SDS011;47923;42.506;24.192;2022-08-19T00:04:18;7.90;;;5.18;;
61960;SDS011;47923;42.506;24.192;2022-08-19T00:06:49;8.35;;;5.30;;
61960;SDS011;47923;42.506;24.192;2022-08-19T00:09:16;8.00;;;5.22;;
61960;SDS011;47923;42.506;24.192;2022-08-19T00:11:43;7.55;;;4.90;;
61960;SDS011;47923;42.506;24.192;2022-08-19T00:14:10;7.85;;;5.13;;
61960;SDS011;47923;42.506;24.192;2022-08-19T00:16:38;8.50;;;5.40;;
61960;SDS011;47923;42.506;24.192;2022-08-19T00:19:06;7.88;;;4.75;;
61960;SDS011;47923;42.506;24.192;2022-08-19T00:21:32;7.80;;;5.22;;
61960;SDS011;47923;42.506;24.192;2022-08-19T00:23:57;7.53;;;4.93;;
61960;SDS011;47923;42.506;24.192;2022-08-19T00:26:24;7.60;;;5.00;;
61960;SDS011;47923;42.506;24.192;2022-08-19T00:28:50;7.78;;;5.53;;
61960;SDS011;47923;42.506;24.192;2022-08-19T00:31:16;9.20;;;5.50;;
61960;SDS011;47923;42.506;24.192;2022-08-19T00:33:41;7.97;;;5.30;;
61960;SDS011;47923;42.506;24.192;2022-08-19T00:36:08;9.27;;;5.50;;
61960;SDS011;47923;42.506;24.192;2022-08-19T00:38:34;8.45;;;5.28;;
61960;SDS011;47923;42.506;24.192;2022-08-19T00:41:01;7.82;;;4.97;;
61960;SDS011;47923;42.506;24.192;2022-08-19T00:43:26;8.88;;;5.25;;
61960;SDS011;47923;42.506;24.192;2022-08-19T00:45:53;8.65;;;5.45;;
61960;SDS011;47923;42.506;24.192;2022-08-19T00:48:19;6.80;;;4.72;;
61960;SDS011;47923;42.506;24.192;2022-08-19T00:50:46;8.27;;;5.13;;
61960;SDS011;47923;42.506;24.192;2022-08-19T00:53:14;8.45;;;5.60;;
61960;SDS011;47923;42.506;24.192;2022-08-19T00:55:44;8.00;;;4.45;;
61960;SDS011;47923;42.506;24.192;2022-08-19T00:58:14;8.07;;;5.60;;
61960;SDS011;47923;42.506;24.192;2022-08-19T01:00:43;7.97;;;5.75;;
61960;SDS011;47923;42.506;24.192;2022-08-19T01:03:10;8.05;;;5.53;;
61960;SDS011;47923;42.506;24.192;2022-08-19T01:05:39;7.43;;;5.30;;
61960;SDS011;47923;42.506;24.192;2022-08-19T01:08:07;8.60;;;5.07;;
61960;SDS011;47923;42.506;24.192;2022-08-19T01:10:35;8.27;;;5.72;;
61960;SDS011;47923;42.506;24.192;2022-08-19T01:13:05;8.82;;;6.10;;
61960;SDS011;47923;42.506;24.192;2022-08-19T01:15:32;10.77;;;5.13;;
61960;SDS011;47923;42.506;24.192;2022-08-19T01:18:02;8.40;;;5.55;;
61960;SDS011;47923;42.506;24.192;2022-08-19T01:20:31;9.23;;;5.70;;
61960;SDS011;47923;42.506;24.192;2022-08-19T01:22:58;7.65;;;5.35;;
61960;SDS011;47923;42.506;24.192;2022-08-19T01:25:25;9.82;;;5.47;;
61960;SDS011;47923;42.506;24.192;2022-08-19T01:27:54;9.23;;;5.90;;
61960;SDS011;47923;42.506;24.192;2022-08-19T01:30:25;8.68;;;5.28;;
61960;SDS011;47923;42.506;24.192;2022-08-19T01:32:53;9.45;;;5.90;;
61960;SDS011;47923;42.506;24.192;2022-08-19T01:35:20;7.68;;;5.38;;
61960;SDS011;47923;42.506;24.192;2022-08-19T01:37:55;10.07;;;6.20;;
61960;SDS011;47923;42.506;24.192;2022-08-19T01:40:24;8.48;;;6.15;;
61960;SDS011;47923;42.506;24.192;2022-08-19T01:42:53;9.20;;;5.32;;
61960;SDS011;47923;42.506;24.192;2022-08-19T01:45:19;7.45;;;5.45;;
61960;SDS011;47923;42.506;24.192;2022-08-19T01:47:46;8.30;;;5.97;;
61960;SDS011;47923;42.506;24.192;2022-08-19T01:50:12;9.55;;;6.18;;
61960;SDS011;47923;42.506;24.192;2022-08-19T01:52:42;9.38;;;5.55;;
61960;SDS011;47923;42.506;24.192;2022-08-19T01:55:10;9.38;;;6.10;;
61960;SDS011;47923;42.506;24.192;2022-08-19T01:57:38;8.35;;;6.65;;
61960;SDS011;47923;42.506;24.192;2022-08-19T02:00:07;8.85;;;5.93;;
61960;SDS011;47923;42.506;24.192;2022-08-19T02:02:35;8.40;;;6.00;;
61960;SDS011;47923;42.506;24.192;2022-08-19T02:05:01;9.18;;;5.30;;
61960;SDS011;47923;42.506;24.192;2022-08-19T02:07:27;11.02;;;6.20;;
61960;SDS011;47923;42.506;24.192;2022-08-19T02:09:53;9.70;;;6.25;;
61960;SDS011;47923;42.506;24.192;2022-08-19T02:12:20;8.50;;;5.68;;
61960;SDS011;47923;42.506;24.192;2022-08-19T02:14:45;9.63;;;6.22;;
61960;SDS011;47923;42.506;24.192;2022-08-19T02:17:11;7.90;;;6.03;;
61960;SDS011;47923;42.506;24.192;2022-08-19T02:19:37;8.98;;;6.10;;
61960;SDS011;47923;42.506;24.192;2022-08-19T02:22:02;8.07;;;5.75;;
61960;SDS011;47923;42.506;24.192;2022-08-19T02:24:28;16.05;;;7.43;;
61960;SDS011;47923;42.506;24.192;2022-08-19T02:26:54;8.80;;;6.40;;
61960;SDS011;47923;42.506;24.192;2022-08-19T02:29:20;8.43;;;5.90;;
61960;SDS011;47923;42.506;24.192;2022-08-19T02:31:45;10.02;;;5.97;;
61960;SDS011;47923;42.506;24.192;2022-08-19T02:34:11;9.35;;;6.32;;
61960;SDS011;47923;42.506;24.192;2022-08-19T02:36:36;10.43;;;6.55;;
61960;SDS011;47923;42.506;24.192;2022-08-19T02:39:02;9.85;;;6.13;;
61960;SDS011;47923;42.506;24.192;2022-08-19T02:41:29;10.10;;;6.32;;
61960;SDS011;47923;42.506;24.192;2022-08-19T02:43:58;8.18;;;5.65;;
61960;SDS011;47923;42.506;24.192;2022-08-19T02:46:27;10.15;;;6.15;;
61960;SDS011;47923;42.506;24.192;2022-08-19T02:48:55;11.00;;;6.25;;
61960;SDS011;47923;42.506;24.192;2022-08-19T02:51:24;9.02;;;6.45;;
61960;SDS011;47923;42.506;24.192;2022-08-19T02:53:51;9.27;;;6.95;;
61960;SDS011;47923;42.506;24.192;2022-08-19T02:56:17;9.85;;;6.85;;
61960;SDS011;47923;42.506;24.192;2022-08-19T02:58:43;10.32;;;5.88;;
61960;SDS011;47923;42.506;24.192;2022-08-19T03:01:09;8.10;;;5.85;;
61960;SDS011;47923;42.506;24.192;2022-08-19T03:03:36;12.25;;;6.30;;
61960;SDS011;47923;42.506;24.192;2022-08-19T03:06:03;8.85;;;5.97;;
61960;SDS011;47923;42.506;24.192;2022-08-19T03:08:31;10.77;;;6.22;;
61960;SDS011;47923;42.506;24.192;2022-08-19T03:10:56;8.45;;;6.10;;
61960;SDS011;47923;42.506;24.192;2022-08-19T03:13:21;11.15;;;6.88;;
61960;SDS011;47923;42.506;24.192;2022-08-19T03:15:48;11.70;;;6.60;;
61960;SDS011;47923;42.506;24.192;2022-08-19T03:18:14;10.57;;;6.38;;
61960;SDS011;47923;42.506;24.192;2022-08-19T03:20:41;9.68;;;6.18;;
61960;SDS011;47923;42.506;24.192;2022-08-19T03:23:08;12.20;;;6.72;;
61960;SDS011;47923;42.506;24.192;2022-08-19T03:25:38;9.93;;;6.82;;
61960;SDS011;47923;42.506;24.192;2022-08-19T03:28:12;8.90;;;6.70;;
61960;SDS011;47923;42.506;24.192;2022-08-19T03:30:40;9.48;;;6.60;;
61960;SDS011;47923;42.506;24.192;2022-08-19T03:33:08;8.73;;;6.20;;
61960;SDS011;47923;42.506;24.192;2022-08-19T03:35:35;10.25;;;6.50;;
61960;SDS011;47923;42.506;24.192;2022-08-19T03:38:04;9.73;;;6.53;;
61960;SDS011;47923;42.506;24.192;2022-08-19T03:40:31;9.25;;;6.72;;
61960;SDS011;47923;42.506;24.192;2022-08-19T03:42:57;10.45;;;7.05;;
61960;SDS011;47923;42.506;24.192;2022-08-19T03:45:23;8.25;;;6.25;;
61960;SDS011;47923;42.506;24.192;2022-08-19T03:47:48;11.80;;;7.22;;
61960;SDS011;47923;42.506;24.192;2022-08-19T03:50:14;8.60;;;6.32;;
61960;SDS011;47923;42.506;24.192;2022-08-19T03:52:40;10.70;;;6.07;;
61960;SDS011;47923;42.506;24.192;2022-08-19T03:55:06;8.60;;;5.88;;
61960;SDS011;47923;42.506;24.192;2022-08-19T03:57:32;8.85;;;5.90;;
61960;SDS011;47923;42.506;24.192;2022-08-19T03:59:59;9.98;;;5.57;;
61960;SDS011;47923;42.506;24.192;2022-08-19T04:02:26;18.65;;;13.10;;
61960;SDS011;47923;42.506;24.192;2022-08-19T04:04:52;11.30;;;7.00;;
61960;SDS011;47923;42.506;24.192;2022-08-19T04:07:21;12.15;;;6.80;;
61960;SDS011;47923;42.506;24.192;2022-08-19T04:09:47;8.85;;;5.95;;
61960;SDS011;47923;42.506;24.192;2022-08-19T04:12:14;9.55;;;5.95;;
61960;SDS011;47923;42.506;24.192;2022-08-19T04:14:40;10.02;;;5.32;;
61960;SDS011;47923;42.506;24.192;2022-08-19T04:17:05;8.60;;;5.03;;
61960;SDS011;47923;42.506;24.192;2022-08-19T04:19:31;8.90;;;5.60;;
61960;SDS011;47923;42.506;24.192;2022-08-19T04:21:58;8.40;;;5.28;;
61960;SDS011;47923;42.506;24.192;2022-08-19T04:24:23;7.97;;;5.10;;
61960;SDS011;47923;42.506;24.192;2022-08-19T04:26:50;9.93;;;5.10;;
61960;SDS011;47923;42.506;24.192;2022-08-19T04:29:20;8.23;;;5.47;;
61960;SDS011;47923;42.506;24.192;2022-08-19T04:31:51;10.90;;;5.47;;
61960;SDS011;47923;42.506;24.192;2022-08-19T04:34:19;8.10;;;5.20;;
61960;SDS011;47923;42.506;24.192;2022-08-19T04:36:47;8.55;;;4.95;;
61960;SDS011;47923;42.506;24.192;2022-08-19T04:39:17;9.27;;;5.28;;
61960;SDS011;47923;42.506;24.192;2022-08-19T04:41:45;8.18;;;5.13;;
61960;SDS011;47923;42.506;24.192;2022-08-19T04:44:33;10.10;;;5.00;;
61960;SDS011;47923;42.506;24.192;2022-08-19T04:47:00;10.15;;;5.15;;
61960;SDS011;47923;42.506;24.192;2022-08-19T04:49:30;10.80;;;5.55;;
61960;SDS011;47923;42.506;24.192;2022-08-19T04:51:55;11.23;;;5.05;;
61960;SDS011;47923;42.506;24.192;2022-08-19T04:54:22;10.73;;;5.50;;
61960;SDS011;47923;42.506;24.192;2022-08-19T04:56:49;12.10;;;6.38;;
61960;SDS011;47923;42.506;24.192;2022-08-19T04:59:17;10.98;;;6.10;;
61960;SDS011;47923;42.506;24.192;2022-08-19T05:01:43;12.20;;;5.25;;
61960;SDS011;47923;42.506;24.192;2022-08-19T05:04:13;9.70;;;5.30;;
61960;SDS011;47923;42.506;24.192;2022-08-19T05:06:39;8.95;;;5.05;;
61960;SDS011;47923;42.506;24.192;2022-08-19T05:09:04;11.85;;;6.68;;
61960;SDS011;47923;42.506;24.192;2022-08-19T05:11:32;10.93;;;5.20;;
61960;SDS011;47923;42.506;24.192;2022-08-19T05:13:59;8.20;;;5.50;;
61960;SDS011;47923;42.506;24.192;2022-08-19T05:16:25;12.80;;;6.97;;
61960;SDS011;47923;42.506;24.192;2022-08-19T05:18:52;10.85;;;6.22;;
61960;SDS011;47923;42.506;24.192;2022-08-19T05:21:36;11.85;;;5.25;;
61960;SDS011;47923;42.506;24.192;2022-08-19T05:24:20;9.23;;;4.82;;
61960;SDS011;47923;42.506;24.192;2022-08-19T05:26:49;14.20;;;5.05;;
61960;SDS011;47923;42.506;24.192;2022-08-19T05:29:17;8.65;;;4.30;;
61960;SDS011;47923;42.506;24.192;2022-08-19T05:31:44;9.38;;;4.53;;
61960;SDS011;47923;42.506;24.192;2022-08-19T05:34:11;11.25;;;4.78;;
61960;SDS011;47923;42.506;24.192;2022-08-19T05:36:38;8.60;;;4.63;;
61960;SDS011;47923;42.506;24.192;2022-08-19T05:39:06;11.48;;;5.07;;
61960;SDS011;47923;42.506;24.192;2022-08-19T05:41:32;11.18;;;4.60;;
61960;SDS011;47923;42.506;24.192;2022-08-19T05:44:00;14.90;;;5.00;;
61960;SDS011;47923;42.506;24.192;2022-08-19T05:46:28;10.32;;;4.20;;
61960;SDS011;47923;42.506;24.192;2022-08-19T05:48:54;10.32;;;4.68;;
61960;SDS011;47923;42.506;24.192;2022-08-19T05:51:21;9.50;;;4.65;;
61960;SDS011;47923;42.506;24.192;2022-08-19T05:53:47;10.15;;;4.38;;
61960;SDS011;47923;42.506;24.192;2022-08-19T05:56:14;8.00;;;4.50;;
61960;SDS011;47923;42.506;24.192;2022-08-19T05:58:41;9.38;;;4.50;;
61960;SDS011;47923;42.506;24.192;2022-08-19T06:01:11;14.70;;;4.50;;
61960;SDS011;47923;42.506;24.192;2022-08-19T06:03:38;13.15;;;5.45;;
61960;SDS011;47923;42.506;24.192;2022-08-19T06:06:05;8.27;;;4.82;;
61960;SDS011;47923;42.506;24.192;2022-08-19T06:08:33;9.13;;;4.20;;
61960;SDS011;47923;42.506;24.192;2022-08-19T06:11:11;11.52;;;4.85;;
61960;SDS011;47923;42.506;24.192;2022-08-19T06:13:49;8.00;;;4.07;;
61960;SDS011;47923;42.506;24.192;2022-08-19T06:16:20;10.80;;;3.75;;
61960;SDS011;47923;42.506;24.192;2022-08-19T06:18:48;8.98;;;3.70;;
61960;SDS011;47923;42.506;24.192;2022-08-19T06:21:16;4.72;;;3.10;;
61960;SDS011;47923;42.506;24.192;2022-08-19T06:23:43;5.95;;;3.20;;
61960;SDS011;47923;42.506;24.192;2022-08-19T06:26:13;9.18;;;3.40;;
61960;SDS011;47923;42.506;24.192;2022-08-19T06:28:40;5.30;;;3.17;;
61960;SDS011;47923;42.506;24.192;2022-08-19T06:31:11;7.43;;;3.20;;
61960;SDS011;47923;42.506;24.192;2022-08-19T06:33:45;6.22;;;3.33;;
61960;SDS011;47923;42.506;24.192;2022-08-19T06:36:17;5.05;;;3.30;;
61960;SDS011;47923;42.506;24.192;2022-08-19T06:38:44;5.22;;;3.25;;
61960;SDS011;47923;42.506;24.192;2022-08-19T06:41:10;6.35;;;3.25;;
61960;SDS011;47923;42.506;24.192;2022-08-19T06:43:36;5.22;;;3.25;;
61960;SDS011;47923;42.506;24.192;2022-08-19T06:46:01;5.45;;;3.30;;
61960;SDS011;47923;42.506;24.192;2022-08-19T06:48:28;5.43;;;3.28;;
61960;SDS011;47923;42.506;24.192;2022-08-19T06:50:54;5.88;;;3.30;;
61960;SDS011;47923;42.506;24.192;2022-08-19T06:53:20;4.55;;;3.20;;
61960;SDS011;47923;42.506;24.192;2022-08-19T06:55:46;7.15;;;3.00;;
61960;SDS011;47923;42.506;24.192;2022-08-19T06:58:12;6.43;;;3.33;;
61960;SDS011;47923;42.506;24.192;2022-08-19T07:00:37;4.30;;;2.58;;
61960;SDS011;47923;42.506;24.192;2022-08-19T07:03:03;4.75;;;2.80;;
61960;SDS011;47923;42.506;24.192;2022-08-19T07:05:28;4.78;;;3.10;;
61960;SDS011;47923;42.506;24.192;2022-08-19T07:07:54;5.45;;;2.88;;
61960;SDS011;47923;42.506;24.192;2022-08-19T07:10:19;3.95;;;2.45;;
61960;SDS011;47923;42.506;24.192;2022-08-19T07:12:45;4.75;;;2.58;;
61960;SDS011;47923;42.506;24.192;2022-08-19T07:15:10;5.38;;;2.58;;
61960;SDS011;47923;42.506;24.192;2022-08-19T07:17:37;4.32;;;2.83;;
61960;SDS011;47923;42.506;24.192;2022-08-19T07:20:03;5.97;;;2.90;;
61960;SDS011;47923;42.506;24.192;2022-08-19T07:22:32;5.65;;;2.90;;
61960;SDS011;47923;42.506;24.192;2022-08-19T07:24:59;5.95;;;2.70;;
61960;SDS011;47923;42.506;24.192;2022-08-19T07:27:24;9.15;;;2.80;;
61960;SDS011;47923;42.506;24.192;2022-08-19T07:29:50;7.10;;;2.47;;
61960;SDS011;47923;42.506;24.192;2022-08-19T07:32:17;5.93;;;3.03;;
61960;SDS011;47923;42.506;24.192;2022-08-19T07:34:42;6.55;;;2.78;;
61960;SDS011;47923;42.506;24.192;2022-08-19T07:37:08;6.75;;;2.97;;
61960;SDS011;47923;42.506;24.192;2022-08-19T07:39:37;7.20;;;3.10;;
61960;SDS011;47923;42.506;24.192;2022-08-19T07:42:07;4.50;;;2.67;;
61960;SDS011;47923;42.506;24.192;2022-08-19T07:44:35;3.53;;;2.50;;
61960;SDS011;47923;42.506;24.192;2022-08-19T07:47:01;7.10;;;3.10;;
61960;SDS011;47923;42.506;24.192;2022-08-19T07:49:27;6.20;;;2.85;;
61960;SDS011;47923;42.506;24.192;2022-08-19T07:51:57;7.00;;;2.78;;
61960;SDS011;47923;42.506;24.192;2022-08-19T07:54:26;8.15;;;2.90;;
61960;SDS011;47923;42.506;24.192;2022-08-19T07:56:53;5.88;;;2.40;;
61960;SDS011;47923;42.506;24.192;2022-08-19T07:59:19;5.18;;;2.70;;
61960;SDS011;47923;42.506;24.192;2022-08-19T08:01:46;5.47;;;2.45;;
61960;SDS011;47923;42.506;24.192;2022-08-19T08:04:12;5.32;;;2.80;;
61960;SDS011;47923;42.506;24.192;2022-08-19T08:06:57;6.03;;;3.30;;
61960;SDS011;47923;42.506;24.192;2022-08-19T08:09:42;6.05;;;2.65;;
61960;SDS011;47923;42.506;24.192;2022-08-19T08:14:46;5.68;;;2.90;;
61960;SDS011;47923;42.506;24.192;2022-08-19T08:17:18;8.43;;;3.17;;
61960;SDS011;47923;42.506;24.192;2022-08-19T08:19:45;4.40;;;2.65;;
61960;SDS011;47923;42.506;24.192;2022-08-19T08:22:13;5.40;;;2.63;;
61960;SDS011;47923;42.506;24.192;2022-08-19T08:25:01;6.95;;;2.85;;
61960;SDS011;47923;42.506;24.192;2022-08-19T08:27:35;4.28;;;2.75;;
61960;SDS011;47923;42.506;24.192;2022-08-19T08:30:04;5.35;;;3.03;;
61960;SDS011;47923;42.506;24.192;2022-08-19T08:32:34;6.15;;;2.63;;
61960;SDS011;47923;42.506;24.192;2022-08-19T08:35:00;7.35;;;3.08;;
61960;SDS011;47923;42.506;24.192;2022-08-19T08:37:25;4.50;;;2.63;;
61960;SDS011;47923;42.506;24.192;2022-08-19T08:39:51;4.70;;;2.67;;
61960;SDS011;47923;42.506;24.192;2022-08-19T08:42:24;3.63;;;2.70;;
61960;SDS011;47923;42.506;24.192;2022-08-19T08:44:58;4.90;;;2.72;;
61960;SDS011;47923;42.506;24.192;2022-08-19T08:47:25;6.55;;;2.42;;
61960;SDS011;47923;42.506;24.192;2022-08-19T08:49:59;6.40;;;2.45;;
61960;SDS011;47923;42.506;24.192;2022-08-19T08:52:43;3.72;;;2.28;;
61960;SDS011;47923;42.506;24.192;2022-08-19T08:55:14;4.07;;;2.75;;
61960;SDS011;47923;42.506;24.192;2022-08-19T09:00:11;4.55;;;2.90;;
61960;SDS011;47923;42.506;24.192;2022-08-19T09:02:43;4.07;;;2.40;;
61960;SDS011;47923;42.506;24.192;2022-08-19T09:05:09;3.65;;;2.55;;
61960;SDS011;47923;42.506;24.192;2022-08-19T09:16:00;5.25;;;2.63;;
61960;SDS011;47923;42.506;24.192;2022-08-19T09:18:47;6.28;;;2.35;;
61960;SDS011;47923;42.506;24.192;2022-08-19T09:21:17;6.22;;;2.75;;
61960;SDS011;47923;42.506;24.192;2022-08-19T09:23:45;4.22;;;2.50;;
61960;SDS011;47923;42.506;24.192;2022-08-19T09:26:12;3.85;;;2.08;;
61960;SDS011;47923;42.506;24.192;2022-08-19T09:28:40;4.55;;;2.20;;
61960;SDS011;47923;42.506;24.192;2022-08-19T09:31:10;5.15;;;2.38;;
61960;SDS011;47923;42.506;24.192;2022-08-19T09:33:37;2.47;;;2.10;;
61960;SDS011;47923;42.506;24.192;2022-08-19T09:36:06;4.85;;;2.13;;
61960;SDS011;47923;42.506;24.192;2022-08-19T09:38:35;3.33;;;2.28;;
61960;SDS011;47923;42.506;24.192;2022-08-19T09:41:02;3.40;;;2.30;;
61960;SDS011;47923;42.506;24.192;2022-08-19T09:43:49;3.22;;;2.38;;
61960;SDS011;47923;42.506;24.192;2022-08-19T09:46:23;5.43;;;2.13;;
61960;SDS011;47923;42.506;24.192;2022-08-19T09:48:51;4.57;;;2.15;;
61960;SDS011;47923;42.506;24.192;2022-08-19T09:51:21;5.45;;;2.53;;
61960;SDS011;47923;42.506;24.192;2022-08-19T09:53:49;6.45;;;2.58;;
61960;SDS011;47923;42.506;24.192;2022-08-19T09:56:16;3.55;;;2.03;;
61960;SDS011;47923;42.506;24.192;2022-08-19T09:58:43;3.60;;;2.10;;
61960;SDS011;47923;42.506;24.192;2022-08-19T10:01:11;4.05;;;2.30;;
61960;SDS011;47923;42.506;24.192;2022-08-19T10:03:42;3.90;;;2.10;;
61960;SDS011;47923;42.506;24.192;2022-08-19T10:06:07;4.28;;;2.58;;
61960;SDS011;47923;42.506;24.192;2022-08-19T10:08:35;2.10;;;1.90;;
61960;SDS011;47923;42.506;24.192;2022-08-19T10:11:02;3.17;;;2.17;;
61960;SDS011;47923;42.506;24.192;2022-08-19T10:13:29;2.97;;;1.92;;
61960;SDS011;47923;42.506;24.192;2022-08-19T10:16:02;3.20;;;1.98;;
61960;SDS011;47923;42.506;24.192;2022-08-19T10:18:32;2.83;;;2.10;;
61960;SDS011;47923;42.506;24.192;2022-08-19T10:21:03;5.20;;;2.40;;
61960;SDS011;47923;42.506;24.192;2022-08-19T10:23:35;4.35;;;2.22;;
61960;SDS011;47923;42.506;24.192;2022-08-19T10:26:03;3.40;;;2.33;;
61960;SDS011;47923;42.506;24.192;2022-08-19T10:28:31;4.90;;;2.10;;
61960;SDS011;47923;42.506;24.192;2022-08-19T10:31:06;4.85;;;2.45;;
61960;SDS011;47923;42.506;24.192;2022-08-19T10:33:33;4.18;;;2.30;;
61960;SDS011;47923;42.506;24.192;2022-08-19T10:36:00;4.82;;;2.20;;
61960;SDS011;47923;42.506;24.192;2022-08-19T10:38:31;5.90;;;2.47;;
61960;SDS011;47923;42.506;24.192;2022-08-19T10:40:57;4.60;;;2.40;;
61960;SDS011;47923;42.506;24.192;2022-08-19T10:43:23;5.47;;;2.40;;
61960;SDS011;47923;42.506;24.192;2022-08-19T10:45:53;5.60;;;2.83;;
61960;SDS011;47923;42.506;24.192;2022-08-19T10:48:24;8.20;;;3.10;;
61960;SDS011;47923;42.506;24.192;2022-08-19T10:50:50;6.28;;;3.08;;
61960;SDS011;47923;42.506;24.192;2022-08-19T10:53:33;5.03;;;2.83;;
61960;SDS011;47923;42.506;24.192;2022-08-19T10:55:59;5.35;;;2.83;;
61960;SDS011;47923;42.506;24.192;2022-08-19T10:58:43;4.93;;;2.80;;
61960;SDS011;47923;42.506;24.192;2022-08-19T11:01:09;5.30;;;3.10;;
61960;SDS011;47923;42.506;24.192;2022-08-19T11:03:35;5.07;;;2.90;;
61960;SDS011;47923;42.506;24.192;2022-08-19T11:06:02;5.88;;;3.13;;
61960;SDS011;47923;42.506;24.192;2022-08-19T11:08:30;7.97;;;3.28;;
61960;SDS011;47923;42.506;24.192;2022-08-19T11:10:57;5.85;;;3.25;;
61960;SDS011;47923;42.506;24.192;2022-08-19T11:13:26;7.32;;;3.58;;
61960;SDS011;47923;42.506;24.192;2022-08-19T11:18:28;7.13;;;3.33;;
61960;SDS011;47923;42.506;24.192;2022-08-19T11:20:53;4.78;;;2.70;;
61960;SDS011;47923;42.506;24.192;2022-08-19T11:23:19;4.55;;;2.78;;
61960;SDS011;47923;42.506;24.192;2022-08-19T11:25:45;5.57;;;3.10;;
61960;SDS011;47923;42.506;24.192;2022-08-19T11:28:11;6.63;;;3.45;;
61960;SDS011;47923;42.506;24.192;2022-08-19T11:30:38;5.20;;;3.17;;
61960;SDS011;47923;42.506;24.192;2022-08-19T11:33:04;6.72;;;3.03;;
61960;SDS011;47923;42.506;24.192;2022-08-19T11:35:29;4.43;;;2.80;;
61960;SDS011;47923;42.506;24.192;2022-08-19T11:37:55;7.05;;;3.10;;
61960;SDS011;47923;42.506;24.192;2022-08-19T11:40:26;8.93;;;3.08;;
61960;SDS011;47923;42.506;24.192;2022-08-19T11:42:52;5.90;;;2.92;;
61960;SDS011;47923;42.506;24.192;2022-08-19T11:45:20;5.20;;;2.72;;
61960;SDS011;47923;42.506;24.192;2022-08-19T11:47:46;7.68;;;3.47;;
61960;SDS011;47923;42.506;24.192;2022-08-19T11:50:12;10.48;;;3.58;;
61960;SDS011;47923;42.506;24.192;2022-08-19T11:52:38;7.20;;;3.60;;
61960;SDS011;47923;42.506;24.192;2022-08-19T11:55:04;6.35;;;3.08;;
61960;SDS011;47923;42.506;24.192;2022-08-19T11:57:30;5.07;;;3.10;;
61960;SDS011;47923;42.506;24.192;2022-08-19T11:59:56;5.45;;;2.80;;
61960;SDS011;47923;42.506;24.192;2022-08-19T12:02:21;7.00;;;3.42;;
61960;SDS011;47923;42.506;24.192;2022-08-19T12:04:48;6.07;;;3.20;;
61960;SDS011;47923;42.506;24.192;2022-08-19T12:07:13;6.63;;;3.33;;
61960;SDS011;47923;42.506;24.192;2022-08-19T12:09:39;5.40;;;3.17;;
61960;SDS011;47923;42.506;24.192;2022-08-19T12:12:05;9.77;;;3.28;;
61960;SDS011;47923;42.506;24.192;2022-08-19T12:14:31;5.22;;;2.90;;
61960;SDS011;47923;42.506;24.192;2022-08-19T12:16:57;4.07;;;2.60;;
61960;SDS011;47923;42.506;24.192;2022-08-19T12:19:23;6.97;;;2.95;;
61960;SDS011;47923;42.506;24.192;2022-08-19T12:21:50;6.18;;;2.95;;
61960;SDS011;47923;42.506;24.192;2022-08-19T12:24:16;4.72;;;3.10;;
61960;SDS011;47923;42.506;24.192;2022-08-19T12:26:47;5.50;;;2.90;;
61960;SDS011;47923;42.506;24.192;2022-08-19T12:29:14;7.05;;;2.90;;
61960;SDS011;47923;42.506;24.192;2022-08-19T12:31:39;4.88;;;3.15;;
61960;SDS011;47923;42.506;24.192;2022-08-19T12:34:05;8.80;;;3.40;;
61960;SDS011;47923;42.506;24.192;2022-08-19T12:36:30;6.13;;;3.38;;
61960;SDS011;47923;42.506;24.192;2022-08-19T12:38:58;6.45;;;3.22;;
61960;SDS011;47923;42.506;24.192;2022-08-19T12:41:24;5.30;;;2.90;;
61960;SDS011;47923;42.506;24.192;2022-08-19T12:43:50;7.32;;;2.83;;
61960;SDS011;47923;42.506;24.192;2022-08-19T12:46:16;6.93;;;3.28;;
61960;SDS011;47923;42.506;24.192;2022-08-19T12:48:42;6.70;;;3.25;;
61960;SDS011;47923;42.506;24.192;2022-08-19T12:51:10;5.93;;;3.00;;
61960;SDS011;47923;42.506;24.192;2022-08-19T12:53:42;5.25;;;3.03;;
61960;SDS011;47923;42.506;24.192;2022-08-19T12:56:08;4.63;;;3.13;;
61960;SDS011;47923;42.506;24.192;2022-08-19T12:58:35;6.38;;;3.13;;
61960;SDS011;47923;42.506;24.192;2022-08-19T13:01:11;6.20;;;3.03;;
61960;SDS011;47923;42.506;24.192;2022-08-19T13:03:38;5.50;;;2.95;;
61960;SDS011;47923;42.506;24.192;2022-08-19T13:06:04;4.65;;;2.88;;
61960;SDS011;47923;42.506;24.192;2022-08-19T13:08:29;5.00;;;3.00;;
61960;SDS011;47923;42.506;24.192;2022-08-19T13:10:55;7.00;;;3.30;;
61960;SDS011;47923;42.506;24.192;2022-08-19T13:13:21;4.40;;;2.70;;
61960;SDS011;47923;42.506;24.192;2022-08-19T13:15:47;5.25;;;3.17;;
61960;SDS011;47923;42.506;24.192;2022-08-19T13:18:12;5.10;;;2.67;;
61960;SDS011;47923;42.506;24.192;2022-08-19T13:20:39;4.05;;;2.67;;
61960;SDS011;47923;42.506;24.192;2022-08-19T13:23:08;5.35;;;3.05;;
61960;SDS011;47923;42.506;24.192;2022-08-19T13:25:34;5.00;;;2.88;;
61960;SDS011;47923;42.506;24.192;2022-08-19T13:28:01;4.47;;;2.97;;
61960;SDS011;47923;42.506;24.192;2022-08-19T13:30:27;6.90;;;3.17;;
61960;SDS011;47923;42.506;24.192;2022-08-19T13:33:11;7.88;;;3.10;;
61960;SDS011;47923;42.506;24.192;2022-08-19T13:35:37;5.97;;;2.80;;
61960;SDS011;47923;42.506;24.192;2022-08-19T13:38:08;9.70;;;3.70;;
61960;SDS011;47923;42.506;24.192;2022-08-19T13:40:34;5.80;;;3.17;;
61960;SDS011;47923;42.506;24.192;2022-08-19T13:43:01;7.57;;;3.38;;
61960;SDS011;47923;42.506;24.192;2022-08-19T13:45:28;6.07;;;2.97;;
61960;SDS011;47923;42.506;24.192;2022-08-19T13:47:57;7.47;;;3.38;;
61960;SDS011;47923;42.506;24.192;2022-08-19T13:50:24;7.03;;;3.08;;
61960;SDS011;47923;42.506;24.192;2022-08-19T13:52:52;9.32;;;3.17;;
61960;SDS011;47923;42.506;24.192;2022-08-19T13:55:19;6.47;;;3.30;;
61960;SDS011;47923;42.506;24.192;2022-08-19T13:57:44;6.63;;;3.58;;
61960;SDS011;47923;42.506;24.192;2022-08-19T14:00:12;8.48;;;3.30;;
61960;SDS011;47923;42.506;24.192;2022-08-19T14:02:39;6.18;;;3.28;;
61960;SDS011;47923;42.506;24.192;2022-08-19T14:05:07;7.07;;;3.30;;
61960;SDS011;47923;42.506;24.192;2022-08-19T14:07:34;5.53;;;2.90;;
61960;SDS011;47923;42.506;24.192;2022-08-19T14:10:00;7.53;;;3.13;;
61960;SDS011;47923;42.506;24.192;2022-08-19T14:12:26;5.82;;;3.13;;
61960;SDS011;47923;42.506;24.192;2022-08-19T14:14:51;7.15;;;3.28;;
61960;SDS011;47923;42.506;24.192;2022-08-19T14:17:17;5.43;;;3.38;;
61960;SDS011;47923;42.506;24.192;2022-08-19T14:19:42;7.30;;;3.88;;
61960;SDS011;47923;42.506;24.192;2022-08-19T14:22:08;5.43;;;3.22;;
61960;SDS011;47923;42.506;24.192;2022-08-19T14:24:34;6.20;;;3.38;;
61960;SDS011;47923;42.506;24.192;2022-08-19T14:26:59;4.75;;;3.22;;
61960;SDS011;47923;42.506;24.192;2022-08-19T14:29:25;7.30;;;3.80;;
61960;SDS011;47923;42.506;24.192;2022-08-19T14:31:53;9.25;;;4.15;;
61960;SDS011;47923;42.506;24.192;2022-08-19T14:34:19;7.25;;;3.70;;
61960;SDS011;47923;42.506;24.192;2022-08-19T14:36:44;7.07;;;3.60;;
61960;SDS011;47923;42.506;24.192;2022-08-19T14:39:10;6.63;;;3.25;;
61960;SDS011;47923;42.506;24.192;2022-08-19T14:41:36;5.93;;;3.50;;
61960;SDS011;47923;42.506;24.192;2022-08-19T14:44:05;5.70;;;3.17;;
61960;SDS011;47923;42.506;24.192;2022-08-19T14:46:31;5.88;;;3.40;;
61960;SDS011;47923;42.506;24.192;2022-08-19T14:48:56;7.53;;;3.47;;
61960;SDS011;47923;42.506;24.192;2022-08-19T14:51:23;5.28;;;3.15;;
61960;SDS011;47923;42.506;24.192;2022-08-19T14:53:49;6.13;;;3.00;;